Sofoklis Venizelos — SWBZ — position and weather

sailwx.info

Track history (hours):
 
Tides and Currents Weather Stations Pressure Air Temp Water Temp Dewpoint Dewpoint Depression Visibility Wind Speed Wind Dir Waves Ship Positions

Sofoklis Venizelos

Last reported at 2014-Jul-28 01:28 UTC. Time now 2014-Jul-28 08:21 UTC.
Position N 37°12' W 000°18'.

Length 188 m; draft 6.6 m.

Type: Passenger vessel. MMSI: 239593000.

Date/timePositionNaut miles runAvg speedWind from/ knotsBaromVisibWave heightAir tempDewpointWater temp
2014-Jul-28 01:28N 37°12' W 000°18'4519.5
2014-Jul-27 23:08N 37°57' W 000°22'1219.4
2014-Jul-27 22:31N 38°09' W 000°24'11 3.6
2014-Jul-27 19:22N 38°19' W 000°30'10 9.6
2014-Jul-27 18:22N 38°11' W 000°25'1820.7
2014-Jul-27 17:30N 37°53' W 000°26'2121.8
2014-Jul-27 16:33N 37°32' W 000°26'2321.5
2014-Jul-27 15:28N 37°09' W 000°30'14 1.1
2014-Jul-27 02:23N 37°20' W 000°19'2421.9
2014-Jul-27 01:17N 37°44' W 000°18'1622.1
2014-Jul-27 00:33N 37°60' W 000°22'2113.7
2014-Jul-26 23:03N 38°19' W 000°30'0 0.0
2014-Jul-26 22:30N 38°19' W 000°30'26 5.2
2014-Jul-26 17:33N 37°54' W 000°26'2221.9
2014-Jul-26 16:32N 37°32' W 000°29'17 1.0
2014-Jul-26 00:06N 37°47' W 000°18'1222.1
2014-Jul-25 23:33N 37°59' W 000°21'6 0.4
2014-Jul-25 07:16N 38°04' W 000°25'1419.9
2014-Jul-25 06:34N 37°50' W 000°27'12420.3
2014-Jul-25 00:26N 35°46' W 000°37'4 3.9
2014-Jul-24 23:25N 35°43' W 000°39'0 0.0
2014-Jul-24 22:30N 35°43' W 000°39'0 0.0
2014-Jul-24 20:19N 35°43' W 000°39'0 0.0
2014-Jul-24 17:19N 35°43' W 000°39'64 4.6
2014-Jul-24 03:33N 36°45' W 000°23'2120.6
2014-Jul-24 02:34N 37°05' W 000°20'2020.2
2014-Jul-24 01:33N 37°26' W 000°18'2020.6
2014-Jul-24 00:33N 37°46' W 000°19'29 4.8
2014-Jul-23 18:23N 38°15' W 000°27'1821.2
2014-Jul-23 17:33N 37°57' W 000°26'2222.1
2014-Jul-23 16:33N 37°35' W 000°28'2221.9
2014-Jul-23 15:33N 37°13' W 000°30'2222.1
2014-Jul-23 14:33N 36°51' W 000°32'2222.1
2014-Jul-23 13:33N 36°29' W 000°34'2222.3
2014-Jul-23 12:33N 36°07' W 000°35'2221.6
2014-Jul-23 11:33N 35°45' W 000°37'3 2.6
2014-Jul-23 10:20N 35°43' W 000°39'0 0.0
2014-Jul-23 09:10N 35°43' W 000°39'0 0.0
2014-Jul-23 08:20N 35°43' W 000°39'0 0.0
2014-Jul-23 07:33N 35°43' W 000°39'2 1.4
2014-Jul-23 06:27N 35°44' W 000°37'1716.9
2014-Jul-23 05:28N 35°59' W 000°31'2021.4
2014-Jul-23 04:33N 36°18' W 000°26'2521.6
2014-Jul-23 03:23N 36°44' W 000°23'1821.9
2014-Jul-23 02:33N 37°02' W 000°20'2222.1
2014-Jul-23 01:33N 37°24' W 000°18'2222.4
2014-Jul-23 00:33N 37°46' W 000°19'2222.3
2014-Jul-22 23:33N 38°08' W 000°23'13 8.9
2014-Jul-22 22:09N 38°19' W 000°30'0 0.0
2014-Jul-22 21:31N 38°19' W 000°30'0 0.0
2014-Jul-22 20:33N 38°19' W 000°30'0 0.0
2014-Jul-22 19:32N 38°19' W 000°30'0 0.0
2014-Jul-22 18:28N 38°19' W 000°30'0 0.0
2014-Jul-22 17:19N 38°19' W 000°30'0 0.0
2014-Jul-22 16:26N 38°19' W 000°30'0 0.0
2014-Jul-22 13:13N 38°19' W 000°30'0 0.0
2014-Jul-22 12:33N 38°19' W 000°30'7 1.5
2014-Jul-22 07:33N 38°13' W 000°26'1919.8
2014-Jul-22 06:33N 37°54' W 000°20'2019.9
2014-Jul-22 05:33N 37°34' W 000°16'2019.9
2014-Jul-22 04:33N 37°15' W 000°18'2020.4
2014-Jul-22 03:33N 36°54' W 000°21'2020.4
2014-Jul-22 02:33N 36°34' W 000°22'2120.5
2014-Jul-22 01:32N 36°13' W 000°24'1919.6
2014-Jul-22 00:33N 35°55' W 000°32'13 1.4
2014-Jul-21 15:16N 35°43' W 000°39'0 0.0
2014-Jul-21 14:30N 35°43' W 000°39'112 9.2
2014-Jul-21 02:18N 37°33' W 000°15'1620.2
2014-Jul-21 01:30N 37°49' W 000°17'2020.5
2014-Jul-21 00:32N 38°08' W 000°23'12 2.8
2014-Jul-20 20:05N 38°19' W 000°30'18 1.4
2014-Jul-20 07:33N 38°03' W 000°22'1919.4
2014-Jul-20 06:33N 37°44' W 000°16'5216.9
2014-Jul-20 03:31N 36°52' W 000°21'1919.4
2014-Jul-20 02:33N 36°34' W 000°22'53 3.8
2014-Jul-19 12:32N 35°43' W 000°39'0 0.0
2014-Jul-19 10:23N 35°43' W 000°39'0 0.0
2014-Jul-19 08:24N 35°43' W 000°39'3210.2
2014-Jul-19 05:14N 36°14' W 000°27'3919.0
2014-Jul-19 03:09N 36°53' W 000°22'1319.4
2014-Jul-19 02:27N 37°06' W 000°20'2427.0
2014-Jul-19 01:33N 37°30' W 000°17'2120.0
2014-Jul-19 00:30N 37°51' W 000°19'1112.0
2014-Jul-18 23:33N 38°03' W 000°22'8 0.5
2014-Jul-18 07:23N 38°10' W 000°24'1720.8
2014-Jul-18 06:33N 37°53' W 000°20'2120.7
2014-Jul-18 05:33N 37°33' W 000°17'2120.8
2014-Jul-18 04:33N 37°12' W 000°19'2120.9
2014-Jul-18 03:33N 36°51' W 000°21'  
Track history (hours):
 
Tides and Currents Weather Stations Pressure Air Temp Water Temp Dewpoint Dewpoint Depression Visibility Wind Speed Wind Dir Waves Ship Positions

Sofoklis Venizelos

Last reported at 2014-Jul-28 01:28 UTC. Time now 2014-Jul-28 08:21 UTC.
Position N 37°12' W 000°18'.

Length 188 m; draft 6.6 m.

Type: Passenger vessel. MMSI: 239593000.

Date/timePositionNaut miles runAvg speedWind from/ knotsBaromVisibWave heightAir tempDewpointWater temp
2014-Jul-28 01:28N 37°12' W 000°18'4519.5
2014-Jul-27 23:08N 37°57' W 000°22'1219.4
2014-Jul-27 22:31N 38°09' W 000°24'11 3.6
2014-Jul-27 19:22N 38°19' W 000°30'10 9.6
2014-Jul-27 18:22N 38°11' W 000°25'1820.7
2014-Jul-27 17:30N 37°53' W 000°26'2121.8
2014-Jul-27 16:33N 37°32' W 000°26'2321.5
2014-Jul-27 15:28N 37°09' W 000°30'14 1.1
2014-Jul-27 02:23N 37°20' W 000°19'2421.9
2014-Jul-27 01:17N 37°44' W 000°18'1622.1
2014-Jul-27 00:33N 37°60' W 000°22'2113.7
2014-Jul-26 23:03N 38°19' W 000°30'0 0.0
2014-Jul-26 22:30N 38°19' W 000°30'26 5.2
2014-Jul-26 17:33N 37°54' W 000°26'2221.9
2014-Jul-26 16:32N 37°32' W 000°29'17 1.0
2014-Jul-26 00:06N 37°47' W 000°18'1222.1
2014-Jul-25 23:33N 37°59' W 000°21'6 0.4
2014-Jul-25 07:16N 38°04' W 000°25'1419.9
2014-Jul-25 06:34N 37°50' W 000°27'12420.3
2014-Jul-25 00:26N 35°46' W 000°37'4 3.9
2014-Jul-24 23:25N 35°43' W 000°39'0 0.0
2014-Jul-24 22:30N 35°43' W 000°39'0 0.0
2014-Jul-24 20:19N 35°43' W 000°39'0 0.0
2014-Jul-24 17:19N 35°43' W 000°39'64 4.6
2014-Jul-24 03:33N 36°45' W 000°23'2120.6
2014-Jul-24 02:34N 37°05' W 000°20'2020.2
2014-Jul-24 01:33N 37°26' W 000°18'2020.6
2014-Jul-24 00:33N 37°46' W 000°19'29 4.8
2014-Jul-23 18:23N 38°15' W 000°27'1821.2
2014-Jul-23 17:33N 37°57' W 000°26'2222.1
2014-Jul-23 16:33N 37°35' W 000°28'2221.9
2014-Jul-23 15:33N 37°13' W 000°30'2222.1
2014-Jul-23 14:33N 36°51' W 000°32'2222.1
2014-Jul-23 13:33N 36°29' W 000°34'2222.3
2014-Jul-23 12:33N 36°07' W 000°35'2221.6
2014-Jul-23 11:33N 35°45' W 000°37'3 2.6
2014-Jul-23 10:20N 35°43' W 000°39'0 0.0
2014-Jul-23 09:10N 35°43' W 000°39'0 0.0
2014-Jul-23 08:20N 35°43' W 000°39'0 0.0
2014-Jul-23 07:33N 35°43' W 000°39'2 1.4
2014-Jul-23 06:27N 35°44' W 000°37'1716.9
2014-Jul-23 05:28N 35°59' W 000°31'2021.4
2014-Jul-23 04:33N 36°18' W 000°26'2521.6
2014-Jul-23 03:23N 36°44' W 000°23'1821.9
2014-Jul-23 02:33N 37°02' W 000°20'2222.1
2014-Jul-23 01:33N 37°24' W 000°18'2222.4
2014-Jul-23 00:33N 37°46' W 000°19'2222.3
2014-Jul-22 23:33N 38°08' W 000°23'13 8.9
2014-Jul-22 22:09N 38°19' W 000°30'0 0.0
2014-Jul-22 21:31N 38°19' W 000°30'0 0.0
2014-Jul-22 20:33N 38°19' W 000°30'0 0.0
2014-Jul-22 19:32N 38°19' W 000°30'0 0.0
2014-Jul-22 18:28N 38°19' W 000°30'0 0.0
2014-Jul-22 17:19N 38°19' W 000°30'0 0.0
2014-Jul-22 16:26N 38°19' W 000°30'0 0.0
2014-Jul-22 13:13N 38°19' W 000°30'0 0.0
2014-Jul-22 12:33N 38°19' W 000°30'7 1.5
2014-Jul-22 07:33N 38°13' W 000°26'1919.8
2014-Jul-22 06:33N 37°54' W 000°20'2019.9
2014-Jul-22 05:33N 37°34' W 000°16'2019.9
2014-Jul-22 04:33N 37°15' W 000°18'2020.4
2014-Jul-22 03:33N 36°54' W 000°21'2020.4
2014-Jul-22 02:33N 36°34' W 000°22'2120.5
2014-Jul-22 01:32N 36°13' W 000°24'1919.6
2014-Jul-22 00:33N 35°55' W 000°32'13 1.4
2014-Jul-21 15:16N 35°43' W 000°39'0 0.0
2014-Jul-21 14:30N 35°43' W 000°39'112 9.2
2014-Jul-21 02:18N 37°33' W 000°15'1620.2
2014-Jul-21 01:30N 37°49' W 000°17'2020.5
2014-Jul-21 00:32N 38°08' W 000°23'12 2.8
2014-Jul-20 20:05N 38°19' W 000°30'18 1.4
2014-Jul-20 07:33N 38°03' W 000°22'1919.4
2014-Jul-20 06:33N 37°44' W 000°16'5216.9
2014-Jul-20 03:31N 36°52' W 000°21'1919.4
2014-Jul-20 02:33N 36°34' W 000°22'53 3.8
2014-Jul-19 12:32N 35°43' W 000°39'0 0.0
2014-Jul-19 10:23N 35°43' W 000°39'0 0.0
2014-Jul-19 08:24N 35°43' W 000°39'3210.2
2014-Jul-19 05:14N 36°14' W 000°27'3919.0
2014-Jul-19 03:09N 36°53' W 000°22'1319.4
2014-Jul-19 02:27N 37°06' W 000°20'2427.0
2014-Jul-19 01:33N 37°30' W 000°17'2120.0
2014-Jul-19 00:30N 37°51' W 000°19'1112.0
2014-Jul-18 23:33N 38°03' W 000°22'8 0.5
2014-Jul-18 07:23N 38°10' W 000°24'1720.8
2014-Jul-18 06:33N 37°53' W 000°20'2120.7
2014-Jul-18 05:33N 37°33' W 000°17'2120.8
2014-Jul-18 04:33N 37°12' W 000°19'2120.9
2014-Jul-18 03:33N 36°51' W 000°21'  

Dump ship's entire track history